Terminal Aerodrome Forecast
Issued by NWS

Home | Current Version | Previous Version | Text Only | Print | Product List | Glossary Off
Versions: 1 2 3 4 5 6 7 8 9 10 11 12 13 14 15 16 17 18 19 20 21 22 23 24

000
FTUS43 KABR 301200 AAB
TAFPIR
TAF AMD
KPIR 301244Z 3013/3112 05005KT 3SM BR SKC
      TEMPO 3013/3014 3/4SM BR VV002
     FM301400 12008KT P6SM SKC
     FM301900 13017G25KT P6SM SCT250
     FM310000 15014KT P6SM BKN120
     FM310700 21011KT P6SM SCT250=

USA.gov is the U.S. government's official web portal to all federal, state and local government web resources and services.